sensor_id;sensor_type;location;lat;lon;timestamp;pressure;altitude;pressure_sealevel;temperature;humidity
41078;BME280;26823;42.662;23.352;2022-12-29T00:01:39;95686.28;;;3.41;91.63
41078;BME280;26823;42.662;23.352;2022-12-29T00:04:06;95681.78;;;3.35;93.34
41078;BME280;26823;42.662;23.352;2022-12-29T00:06:32;95683.44;;;3.36;92.40
41078;BME280;26823;42.662;23.352;2022-12-29T00:08:57;95675.84;;;3.26;92.31
41078;BME280;26823;42.662;23.352;2022-12-29T00:11:26;95679.28;;;3.40;92.18
41078;BME280;26823;42.662;23.352;2022-12-29T00:13:53;95685.59;;;3.59;91.75
41078;BME280;26823;42.662;23.352;2022-12-29T00:16:38;95687.81;;;3.69;91.18
41078;BME280;26823;42.662;23.352;2022-12-29T00:19:05;95655.84;;;3.42;91.40
41078;BME280;26823;42.662;23.352;2022-12-29T00:21:30;95689.19;;;3.79;91.33
41078;BME280;26823;42.662;23.352;2022-12-29T00:24:20;95683.78;;;3.92;90.26
41078;BME280;26823;42.662;23.352;2022-12-29T00:27:04;95693.56;;;4.05;89.95
41078;BME280;26823;42.662;23.352;2022-12-29T00:29:52;95695.09;;;3.94;90.80
41078;BME280;26823;42.662;23.352;2022-12-29T00:32:36;95689.28;;;3.65;91.42
41078;BME280;26823;42.662;23.352;2022-12-29T00:37:51;95699.13;;;3.71;91.31
41078;BME280;26823;42.662;23.352;2022-12-29T00:40:35;95691.28;;;3.77;90.57
41078;BME280;26823;42.662;23.352;2022-12-29T00:43:19;95701.66;;;3.98;90.03
41078;BME280;26823;42.662;23.352;2022-12-29T00:46:03;95698.13;;;3.98;89.29
41078;BME280;26823;42.662;23.352;2022-12-29T00:48:29;95709.41;;;4.06;88.89
41078;BME280;26823;42.662;23.352;2022-12-29T00:51:14;95702.91;;;3.96;88.87
41078;BME280;26823;42.662;23.352;2022-12-29T00:53:40;95701.03;;;4.03;87.67
41078;BME280;26823;42.662;23.352;2022-12-29T00:56:05;95711.91;;;4.08;88.12
41078;BME280;26823;42.662;23.352;2022-12-29T00:58:30;95697.59;;;3.89;88.51
41078;BME280;26823;42.662;23.352;2022-12-29T01:01:06;95705.81;;;3.87;89.66
41078;BME280;26823;42.662;23.352;2022-12-29T01:03:34;95670.78;;;3.57;89.14
41078;BME280;26823;42.662;23.352;2022-12-29T01:06:00;95702.84;;;3.70;89.73
41078;BME280;26823;42.662;23.352;2022-12-29T01:08:30;95708.25;;;3.96;89.40
41078;BME280;26823;42.662;23.352;2022-12-29T01:13:24;95705.53;;;4.02;87.69
41078;BME280;26823;42.662;23.352;2022-12-29T01:15:53;95686.56;;;4.04;87.21
41078;BME280;26823;42.662;23.352;2022-12-29T01:18:20;95699.09;;;4.10;87.42
41078;BME280;26823;42.662;23.352;2022-12-29T01:20:45;95698.50;;;4.08;87.09
41078;BME280;26823;42.662;23.352;2022-12-29T01:23:11;95682.84;;;3.73;87.67
41078;BME280;26823;42.662;23.352;2022-12-29T01:25:36;95701.03;;;3.96;87.72
41078;BME280;26823;42.662;23.352;2022-12-29T01:28:01;95693.28;;;3.88;88.23
41078;BME280;26823;42.662;23.352;2022-12-29T01:30:27;95682.22;;;3.78;88.31
41078;BME280;26823;42.662;23.352;2022-12-29T01:32:52;95685.50;;;3.80;87.75
41078;BME280;26823;42.662;23.352;2022-12-29T01:35:18;95649.44;;;3.82;87.56
41078;BME280;26823;42.662;23.352;2022-12-29T01:37:43;95671.56;;;3.64;88.37
41078;BME280;26823;42.662;23.352;2022-12-29T01:40:09;95689.72;;;3.55;89.57
41078;BME280;26823;42.662;23.352;2022-12-29T01:42:35;95668.50;;;3.61;89.42
41078;BME280;26823;42.662;23.352;2022-12-29T01:45:19;95658.31;;;3.76;88.52
41078;BME280;26823;42.662;23.352;2022-12-29T01:47:54;95680.28;;;3.53;89.93
41078;BME280;26823;42.662;23.352;2022-12-29T01:53:01;95664.66;;;2.91;92.76
41078;BME280;26823;42.662;23.352;2022-12-29T01:55:29;95665.69;;;2.97;92.90
41078;BME280;26823;42.662;23.352;2022-12-29T01:57:59;95647.19;;;2.88;93.28
41078;BME280;26823;42.662;23.352;2022-12-29T02:00:26;95652.69;;;3.07;92.05
41078;BME280;26823;42.662;23.352;2022-12-29T02:02:52;95662.66;;;3.32;91.06
41078;BME280;26823;42.662;23.352;2022-12-29T02:05:39;95655.22;;;3.47;90.58
41078;BME280;26823;42.662;23.352;2022-12-29T02:08:06;95658.63;;;3.61;90.09
41078;BME280;26823;42.662;23.352;2022-12-29T02:10:34;95644.59;;;3.66;89.05
41078;BME280;26823;42.662;23.352;2022-12-29T02:13:00;95622.72;;;3.43;88.63
41078;BME280;26823;42.662;23.352;2022-12-29T02:18:22;95662.56;;;3.58;89.99
41078;BME280;26823;42.662;23.352;2022-12-29T02:29:26;95659.50;;;3.55;90.58
41078;BME280;26823;42.662;23.352;2022-12-29T02:32:03;95653.66;;;3.65;89.45
41078;BME280;26823;42.662;23.352;2022-12-29T02:42:56;95657.66;;;3.87;88.57
41078;BME280;26823;42.662;23.352;2022-12-29T02:50:38;95661.75;;;3.90;87.66
41078;BME280;26823;42.662;23.352;2022-12-29T02:53:07;95655.28;;;4.04;87.22
41078;BME280;26823;42.662;23.352;2022-12-29T02:55:34;95649.72;;;4.06;87.22
41078;BME280;26823;42.662;23.352;2022-12-29T02:58:14;95648.91;;;4.05;87.07
41078;BME280;26823;42.662;23.352;2022-12-29T03:01:01;95652.44;;;3.99;87.53
41078;BME280;26823;42.662;23.352;2022-12-29T03:04:01;95650.50;;;4.06;86.91
41078;BME280;26823;42.662;23.352;2022-12-29T03:06:52;95639.63;;;4.08;86.96
41078;BME280;26823;42.662;23.352;2022-12-29T03:12:12;95645.31;;;4.18;86.36
41078;BME280;26823;42.662;23.352;2022-12-29T03:14:55;95650.75;;;4.30;85.66
41078;BME280;26823;42.662;23.352;2022-12-29T03:18:09;95644.69;;;4.16;86.18
41078;BME280;26823;42.662;23.352;2022-12-29T03:20:58;95643.19;;;4.27;86.00
41078;BME280;26823;42.662;23.352;2022-12-29T03:23:27;95635.69;;;4.11;86.69
41078;BME280;26823;42.662;23.352;2022-12-29T03:25:58;95630.25;;;3.92;87.41
41078;BME280;26823;42.662;23.352;2022-12-29T03:28:31;95629.72;;;3.45;88.73
41078;BME280;26823;42.662;23.352;2022-12-29T03:31:00;95636.13;;;3.30;90.89
41078;BME280;26823;42.662;23.352;2022-12-29T03:33:28;95635.81;;;3.13;91.60
41078;BME280;26823;42.662;23.352;2022-12-29T03:35:59;95640.75;;;3.09;92.82
41078;BME280;26823;42.662;23.352;2022-12-29T03:38:32;95638.03;;;3.16;92.30
41078;BME280;26823;42.662;23.352;2022-12-29T03:41:00;95639.22;;;3.34;92.23
41078;BME280;26823;42.662;23.352;2022-12-29T03:43:29;95625.41;;;3.37;90.68
41078;BME280;26823;42.662;23.352;2022-12-29T03:45:54;95636.50;;;3.47;89.69
41078;BME280;26823;42.662;23.352;2022-12-29T03:48:20;95606.16;;;2.63;91.40
41078;BME280;26823;42.662;23.352;2022-12-29T03:50:45;95650.09;;;2.73;92.69
41078;BME280;26823;42.662;23.352;2022-12-29T03:53:11;95643.75;;;2.48;94.00
41078;BME280;26823;42.662;23.352;2022-12-29T03:55:36;95656.31;;;2.47;94.38
41078;BME280;26823;42.662;23.352;2022-12-29T03:58:02;95656.50;;;2.45;93.60
41078;BME280;26823;42.662;23.352;2022-12-29T04:00:27;95653.63;;;2.54;93.53
41078;BME280;26823;42.662;23.352;2022-12-29T04:02:53;95661.03;;;2.58;93.14
41078;BME280;26823;42.662;23.352;2022-12-29T04:05:19;95651.56;;;2.42;92.51
41078;BME280;26823;42.662;23.352;2022-12-29T04:07:44;95662.25;;;2.42;93.76
41078;BME280;26823;42.662;23.352;2022-12-29T04:10:10;95666.78;;;2.35;94.19
41078;BME280;26823;42.662;23.352;2022-12-29T04:12:35;95662.88;;;2.51;93.96
41078;BME280;26823;42.662;23.352;2022-12-29T04:15:00;95646.44;;;2.34;93.74
41078;BME280;26823;42.662;23.352;2022-12-29T04:17:26;95648.50;;;2.25;94.61
41078;BME280;26823;42.662;23.352;2022-12-29T04:19:51;95668.41;;;2.36;95.06
41078;BME280;26823;42.662;23.352;2022-12-29T04:22:36;95652.38;;;2.43;94.35
41078;BME280;26823;42.662;23.352;2022-12-29T04:25:02;95663.28;;;2.61;93.56
41078;BME280;26823;42.662;23.352;2022-12-29T04:27:27;95656.88;;;2.56;93.17
41078;BME280;26823;42.662;23.352;2022-12-29T04:29:53;95658.13;;;2.53;93.90
41078;BME280;26823;42.662;23.352;2022-12-29T04:32:18;95637.63;;;2.27;92.90
41078;BME280;26823;42.662;23.352;2022-12-29T04:34:43;95669.44;;;2.49;92.73
41078;BME280;26823;42.662;23.352;2022-12-29T04:37:09;95665.94;;;2.41;93.26
41078;BME280;26823;42.662;23.352;2022-12-29T04:39:34;95630.44;;;2.21;92.50
41078;BME280;26823;42.662;23.352;2022-12-29T04:41:59;95673.34;;;2.53;92.55
41078;BME280;26823;42.662;23.352;2022-12-29T04:44:25;95681.34;;;2.59;92.17
41078;BME280;26823;42.662;23.352;2022-12-29T04:46:50;95683.59;;;2.56;92.36
41078;BME280;26823;42.662;23.352;2022-12-29T04:49:15;95681.34;;;2.59;91.78
41078;BME280;26823;42.662;23.352;2022-12-29T04:51:41;95696.75;;;2.64;91.97
41078;BME280;26823;42.662;23.352;2022-12-29T04:54:06;95690.59;;;2.57;91.29
41078;BME280;26823;42.662;23.352;2022-12-29T04:56:32;95679.91;;;2.50;91.85
41078;BME280;26823;42.662;23.352;2022-12-29T04:58:57;95680.13;;;2.49;91.99
41078;BME280;26823;42.662;23.352;2022-12-29T05:01:22;95685.25;;;2.50;92.10
41078;BME280;26823;42.662;23.352;2022-12-29T05:03:50;95690.00;;;2.35;92.07
41078;BME280;26823;42.662;23.352;2022-12-29T05:06:15;95691.84;;;2.48;92.56
41078;BME280;26823;42.662;23.352;2022-12-29T05:08:41;95652.81;;;2.20;92.17
41078;BME280;26823;42.662;23.352;2022-12-29T05:11:06;95676.22;;;2.31;93.03
41078;BME280;26823;42.662;23.352;2022-12-29T05:13:31;95692.03;;;2.46;93.18
41078;BME280;26823;42.662;23.352;2022-12-29T05:15:57;95686.69;;;2.53;92.93
41078;BME280;26823;42.662;23.352;2022-12-29T05:18:22;95690.59;;;2.70;92.57
41078;BME280;26823;42.662;23.352;2022-12-29T05:20:48;95689.56;;;2.71;91.74
41078;BME280;26823;42.662;23.352;2022-12-29T05:23:13;95678.69;;;2.53;91.94
41078;BME280;26823;42.662;23.352;2022-12-29T05:25:39;95695.09;;;2.70;92.08
41078;BME280;26823;42.662;23.352;2022-12-29T05:28:04;95685.25;;;2.57;92.59
41078;BME280;26823;42.662;23.352;2022-12-29T05:30:30;95697.16;;;2.68;92.40
41078;BME280;26823;42.662;23.352;2022-12-29T05:32:55;95690.78;;;2.62;92.89
41078;BME280;26823;42.662;23.352;2022-12-29T05:35:20;95686.69;;;2.66;93.29
41078;BME280;26823;42.662;23.352;2022-12-29T05:37:46;95692.03;;;2.66;93.34
41078;BME280;26823;42.662;23.352;2022-12-29T05:40:11;95691.84;;;2.48;93.20
41078;BME280;26823;42.662;23.352;2022-12-29T05:42:36;95692.84;;;2.73;92.46
41078;BME280;26823;42.662;23.352;2022-12-29T05:45:02;95697.31;;;3.00;91.16
41078;BME280;26823;42.662;23.352;2022-12-29T05:47:28;95696.31;;;2.94;91.62
41078;BME280;26823;42.662;23.352;2022-12-29T05:49:53;95699.81;;;2.88;91.67
41078;BME280;26823;42.662;23.352;2022-12-29T05:52:19;95688.91;;;2.89;91.92
41078;BME280;26823;42.662;23.352;2022-12-29T05:54:44;95697.34;;;2.93;91.88
41078;BME280;26823;42.662;23.352;2022-12-29T05:57:09;95694.44;;;3.01;91.80
41078;BME280;26823;42.662;23.352;2022-12-29T05:59:35;95698.72;;;3.16;90.97
41078;BME280;26823;42.662;23.352;2022-12-29T06:02:00;95707.97;;;3.20;90.71
41078;BME280;26823;42.662;23.352;2022-12-29T06:04:26;95702.19;;;3.23;91.71
41078;BME280;26823;42.662;23.352;2022-12-29T06:06:58;95707.53;;;3.30;91.68
41078;BME280;26823;42.662;23.352;2022-12-29T06:09:23;95672.03;;;3.02;92.02
41078;BME280;26823;42.662;23.352;2022-12-29T06:11:49;95710.69;;;2.93;92.65
41078;BME280;26823;42.662;23.352;2022-12-29T06:14:14;95715.97;;;3.20;92.58
41078;BME280;26823;42.662;23.352;2022-12-29T06:16:39;95721.94;;;3.22;92.13
41078;BME280;26823;42.662;23.352;2022-12-29T06:19:05;95705.91;;;3.22;92.16
41078;BME280;26823;42.662;23.352;2022-12-29T06:21:30;95697.84;;;3.29;91.73
41078;BME280;26823;42.662;23.352;2022-12-29T06:23:55;95708.72;;;3.47;91.65
41078;BME280;26823;42.662;23.352;2022-12-29T06:26:21;95713.81;;;3.55;91.40
41078;BME280;26823;42.662;23.352;2022-12-29T06:28:46;95710.50;;;3.53;91.90
41078;BME280;26823;42.662;23.352;2022-12-29T06:31:12;95706.50;;;3.76;90.33
41078;BME280;26823;42.662;23.352;2022-12-29T06:33:38;95712.31;;;3.66;91.48
41078;BME280;26823;42.662;23.352;2022-12-29T06:36:04;95704.00;;;3.81;89.58
41078;BME280;26823;42.662;23.352;2022-12-29T06:38:29;95716.28;;;3.96;90.38
41078;BME280;26823;42.662;23.352;2022-12-29T06:40:54;95722.16;;;4.11;89.45
41078;BME280;26823;42.662;23.352;2022-12-29T06:43:20;95723.34;;;4.22;89.18
41078;BME280;26823;42.662;23.352;2022-12-29T06:45:45;95711.06;;;4.07;88.71
41078;BME280;26823;42.662;23.352;2022-12-29T06:48:11;95715.09;;;4.23;88.79
41078;BME280;26823;42.662;23.352;2022-12-29T06:50:36;95727.00;;;4.28;88.56
41078;BME280;26823;42.662;23.352;2022-12-29T06:53:02;95724.38;;;4.21;88.44
41078;BME280;26823;42.662;23.352;2022-12-29T06:55:27;95717.78;;;4.23;88.87
41078;BME280;26823;42.662;23.352;2022-12-29T06:57:56;95735.34;;;4.45;87.71
41078;BME280;26823;42.662;23.352;2022-12-29T07:00:23;95727.91;;;4.47;88.01
41078;BME280;26823;42.662;23.352;2022-12-29T07:02:48;95728.47;;;4.55;87.09
41078;BME280;26823;42.662;23.352;2022-12-29T07:05:14;95731.22;;;4.74;86.79
41078;BME280;26823;42.662;23.352;2022-12-29T07:07:39;95731.31;;;4.86;86.23
41078;BME280;26823;42.662;23.352;2022-12-29T07:10:05;95723.19;;;4.93;85.32
41078;BME280;26823;42.662;23.352;2022-12-29T07:12:30;95744.44;;;4.94;85.30
41078;BME280;26823;42.662;23.352;2022-12-29T07:14:56;95742.63;;;5.13;84.63
41078;BME280;26823;42.662;23.352;2022-12-29T07:17:21;95735.91;;;5.22;83.81
41078;BME280;26823;42.662;23.352;2022-12-29T07:19:46;95738.81;;;5.21;83.23
41078;BME280;26823;42.662;23.352;2022-12-29T07:22:12;95702.13;;;4.96;83.55
41078;BME280;26823;42.662;23.352;2022-12-29T07:24:37;95733.97;;;5.30;83.11
41078;BME280;26823;42.662;23.352;2022-12-29T07:27:03;95717.66;;;5.31;82.62
41078;BME280;26823;42.662;23.352;2022-12-29T07:29:28;95731.75;;;5.45;82.36
41078;BME280;26823;42.662;23.352;2022-12-29T07:31:54;95725.78;;;5.43;81.82
41078;BME280;26823;42.662;23.352;2022-12-29T07:34:19;95722.72;;;5.39;81.61
41078;BME280;26823;42.662;23.352;2022-12-29T07:36:44;95731.59;;;5.40;82.22
41078;BME280;26823;42.662;23.352;2022-12-29T07:39:10;95727.72;;;5.36;81.59
41078;BME280;26823;42.662;23.352;2022-12-29T07:41:36;95733.31;;;5.16;82.00
41078;BME280;26823;42.662;23.352;2022-12-29T07:44:02;95721.34;;;5.12;82.30
41078;BME280;26823;42.662;23.352;2022-12-29T07:46:28;95728.97;;;5.52;82.48
41078;BME280;26823;42.662;23.352;2022-12-29T07:48:53;95731.38;;;6.40;80.82
41078;BME280;26823;42.662;23.352;2022-12-29T07:51:18;95738.72;;;7.46;73.87
41078;BME280;26823;42.662;23.352;2022-12-29T07:53:44;95734.69;;;8.13;70.67
41078;BME280;26823;42.662;23.352;2022-12-29T07:56:09;95733.84;;;8.53;67.79
41078;BME280;26823;42.662;23.352;2022-12-29T07:58:35;95729.63;;;8.74;67.75
41078;BME280;26823;42.662;23.352;2022-12-29T08:01:00;95745.06;;;8.96;65.06
41078;BME280;26823;42.662;23.352;2022-12-29T08:03:26;95742.41;;;7.80;68.02
41078;BME280;26823;42.662;23.352;2022-12-29T08:05:51;95747.84;;;7.57;69.78
41078;BME280;26823;42.662;23.352;2022-12-29T08:08:17;95749.84;;;7.38;70.20
41078;BME280;26823;42.662;23.352;2022-12-29T08:10:42;95749.28;;;7.47;70.52
41078;BME280;26823;42.662;23.352;2022-12-29T08:13:08;95751.34;;;8.10;67.43
41078;BME280;26823;42.662;23.352;2022-12-29T08:15:33;95748.25;;;9.66;63.51
41078;BME280;26823;42.662;23.352;2022-12-29T08:17:59;95757.63;;;10.74;58.70
41078;BME280;26823;42.662;23.352;2022-12-29T08:20:24;95750.59;;;11.06;57.62
41078;BME280;26823;42.662;23.352;2022-12-29T08:22:50;95743.66;;;9.89;59.37
41078;BME280;26823;42.662;23.352;2022-12-29T08:25:16;95749.03;;;10.06;60.15
41078;BME280;26823;42.662;23.352;2022-12-29T08:27:41;95734.19;;;10.90;55.78
41078;BME280;26823;42.662;23.352;2022-12-29T08:30:13;95743.28;;;10.79;56.88
41078;BME280;26823;42.662;23.352;2022-12-29T08:32:38;95743.09;;;10.31;57.57
41078;BME280;26823;42.662;23.352;2022-12-29T08:35:04;95748.72;;;10.02;59.44
41078;BME280;26823;42.662;23.352;2022-12-29T08:37:29;95744.53;;;10.17;58.49
41078;BME280;26823;42.662;23.352;2022-12-29T08:39:57;95740.38;;;10.31;57.61
41078;BME280;26823;42.662;23.352;2022-12-29T08:42:23;95733.19;;;9.92;58.05
41078;BME280;26823;42.662;23.352;2022-12-29T08:44:50;95737.91;;;9.41;60.17
41078;BME280;26823;42.662;23.352;2022-12-29T08:47:15;95741.44;;;10.52;67.34
41078;BME280;26823;42.662;23.352;2022-12-29T08:49:40;95733.97;;;10.65;56.83
41078;BME280;26823;42.662;23.352;2022-12-29T08:52:07;95738.06;;;10.18;56.91
41078;BME280;26823;42.662;23.352;2022-12-29T08:54:33;95735.19;;;9.41;60.17
41078;BME280;26823;42.662;23.352;2022-12-29T08:56:58;95738.19;;;9.05;61.07
41078;BME280;26823;42.662;23.352;2022-12-29T08:59:24;95732.22;;;9.82;59.71
41078;BME280;26823;42.662;23.352;2022-12-29T09:01:49;95700.94;;;10.35;57.07
41078;BME280;26823;42.662;23.352;2022-12-29T09:04:14;95733.66;;;10.34;56.83
41078;BME280;26823;42.662;23.352;2022-12-29T09:06:40;95722.41;;;10.69;55.86
41078;BME280;26823;42.662;23.352;2022-12-29T09:09:05;95722.59;;;10.63;56.37
41078;BME280;26823;42.662;23.352;2022-12-29T09:11:31;95721.75;;;10.07;56.84
41078;BME280;26823;42.662;23.352;2022-12-29T09:13:56;95721.97;;;9.39;59.96
41078;BME280;26823;42.662;23.352;2022-12-29T09:16:23;95722.00;;;9.61;59.61
41078;BME280;26823;42.662;23.352;2022-12-29T09:18:49;95714.56;;;9.74;59.49
41078;BME280;26823;42.662;23.352;2022-12-29T09:21:15;95705.03;;;9.66;59.82
41078;BME280;26823;42.662;23.352;2022-12-29T09:23:40;95710.88;;;10.29;58.15
41078;BME280;26823;42.662;23.352;2022-12-29T09:26:06;95711.34;;;10.21;58.44
41078;BME280;26823;42.662;23.352;2022-12-29T09:28:32;95707.91;;;10.86;55.72
41078;BME280;26823;42.662;23.352;2022-12-29T09:30:58;95713.03;;;10.27;57.06
41078;BME280;26823;42.662;23.352;2022-12-29T09:33:24;95714.00;;;10.16;57.79
41078;BME280;26823;42.662;23.352;2022-12-29T09:35:51;95710.94;;;10.35;56.95
41078;BME280;26823;42.662;23.352;2022-12-29T09:38:17;95714.47;;;10.63;56.44
41078;BME280;26823;42.662;23.352;2022-12-29T09:40:46;95706.63;;;10.61;57.14
41078;BME280;26823;42.662;23.352;2022-12-29T09:48:43;95693.59;;;10.03;58.42
41078;BME280;26823;42.662;23.352;2022-12-29T09:51:12;95698.84;;;10.15;58.64
41078;BME280;26823;42.662;23.352;2022-12-29T09:53:52;95688.06;;;10.75;56.58
41078;BME280;26823;42.662;23.352;2022-12-29T09:56:21;95686.72;;;11.10;55.15
41078;BME280;26823;42.662;23.352;2022-12-29T09:59:02;95686.53;;;11.27;55.61
41078;BME280;26823;42.662;23.352;2022-12-29T10:01:34;95657.31;;;11.87;53.56
41078;BME280;26823;42.662;23.352;2022-12-29T10:04:02;95679.19;;;12.65;50.57
41078;BME280;26823;42.662;23.352;2022-12-29T10:09:06;95670.47;;;12.47;50.42
41078;BME280;26823;42.662;23.352;2022-12-29T10:23:29;95666.25;;;14.79;43.53
41078;BME280;26823;42.662;23.352;2022-12-29T10:25:58;95665.72;;;15.11;43.38
41078;BME280;26823;42.662;23.352;2022-12-29T10:28:34;95664.28;;;17.25;38.85
41078;BME280;26823;42.662;23.352;2022-12-29T10:31:03;95658.19;;;19.45;34.77
41078;BME280;26823;42.662;23.352;2022-12-29T10:33:41;95660.94;;;20.25;32.98
41078;BME280;26823;42.662;23.352;2022-12-29T10:36:20;95629.16;;;20.94;31.78
41078;BME280;26823;42.662;23.352;2022-12-29T10:41:55;95653.44;;;22.05;29.30
41078;BME280;26823;42.662;23.352;2022-12-29T10:44:25;95656.25;;;23.32;27.94
41078;BME280;26823;42.662;23.352;2022-12-29T10:47:02;95647.31;;;23.47;26.01
41078;BME280;26823;42.662;23.352;2022-12-29T10:49:30;95641.09;;;21.07;29.81
41078;BME280;26823;42.662;23.352;2022-12-29T10:51:58;95632.19;;;23.66;26.99
41078;BME280;26823;42.662;23.352;2022-12-29T11:00:00;95632.94;;;23.41;27.21
41078;BME280;26823;42.662;23.352;2022-12-29T11:05:33;95620.84;;;23.92;26.49
41078;BME280;26823;42.662;23.352;2022-12-29T11:08:22;95619.88;;;22.32;27.65
41078;BME280;26823;42.662;23.352;2022-12-29T11:11:04;95603.66;;;18.66;33.28
41078;BME280;26823;42.662;23.352;2022-12-29T11:13:33;95595.75;;;18.05;35.00
41078;BME280;26823;42.662;23.352;2022-12-29T11:15:59;95611.44;;;18.00;35.89
41078;BME280;26823;42.662;23.352;2022-12-29T11:18:33;95593.00;;;19.42;33.39
41078;BME280;26823;42.662;23.352;2022-12-29T11:21:09;95585.66;;;20.61;30.91
41078;BME280;26823;42.662;23.352;2022-12-29T11:23:56;95596.16;;;20.42;30.74
41078;BME280;26823;42.662;23.352;2022-12-29T11:26:25;95588.53;;;18.09;34.37
41078;BME280;26823;42.662;23.352;2022-12-29T11:31:44;95590.44;;;18.23;35.38
41078;BME280;26823;42.662;23.352;2022-12-29T11:34:33;95596.28;;;19.21;33.14
41078;BME280;26823;42.662;23.352;2022-12-29T11:42:03;95560.59;;;20.28;31.34
41078;BME280;26823;42.662;23.352;2022-12-29T11:44:35;95577.09;;;20.54;31.04
41078;BME280;26823;42.662;23.352;2022-12-29T11:47:02;95571.25;;;22.79;27.88
41078;BME280;26823;42.662;23.352;2022-12-29T11:49:28;95586.88;;;24.16;25.71
41078;BME280;26823;42.662;23.352;2022-12-29T11:51:54;95570.78;;;24.06;26.52
41078;BME280;26823;42.662;23.352;2022-12-29T11:54:26;95584.63;;;22.26;27.87
41078;BME280;26823;42.662;23.352;2022-12-29T11:56:53;95578.63;;;23.21;27.19
41078;BME280;26823;42.662;23.352;2022-12-29T12:01:58;95590.47;;;24.04;26.21
41078;BME280;26823;42.662;23.352;2022-12-29T12:04:27;95581.53;;;25.81;23.75
41078;BME280;26823;42.662;23.352;2022-12-29T12:09:25;95583.69;;;27.38;21.87
41078;BME280;26823;42.662;23.352;2022-12-29T12:11:54;95569.38;;;23.87;25.23
41078;BME280;26823;42.662;23.352;2022-12-29T12:17:17;95575.50;;;25.15;23.96
41078;BME280;26823;42.662;23.352;2022-12-29T12:19:47;95571.97;;;22.25;27.57
41078;BME280;26823;42.662;23.352;2022-12-29T12:22:29;95560.44;;;22.53;27.12
41078;BME280;26823;42.662;23.352;2022-12-29T12:25:03;95561.75;;;23.47;25.74
41078;BME280;26823;42.662;23.352;2022-12-29T12:33:16;95560.69;;;21.10;29.40
41078;BME280;26823;42.662;23.352;2022-12-29T12:38:50;95543.47;;;20.57;30.55
41078;BME280;26823;42.662;23.352;2022-12-29T12:50:05;95549.72;;;19.30;32.76
41078;BME280;26823;42.662;23.352;2022-12-29T13:09:36;95537.47;;;19.36;32.75
41078;BME280;26823;42.662;23.352;2022-12-29T13:15:15;95543.97;;;17.95;35.39
41078;BME280;26823;42.662;23.352;2022-12-29T13:18:11;95537.81;;;17.20;36.78
41078;BME280;26823;42.662;23.352;2022-12-29T13:21:27;95542.44;;;15.44;40.45
41078;BME280;26823;42.662;23.352;2022-12-29T13:24:17;95548.50;;;14.58;42.81
41078;BME280;26823;42.662;23.352;2022-12-29T13:26:51;95550.94;;;14.25;43.79
41078;BME280;26823;42.662;23.352;2022-12-29T13:29:26;95539.41;;;11.95;50.60
41078;BME280;26823;42.662;23.352;2022-12-29T13:32:25;95544.03;;;11.95;52.08
41078;BME280;26823;42.662;23.352;2022-12-29T13:37:31;95536.72;;;12.21;51.33
41078;BME280;26823;42.662;23.352;2022-12-29T13:40:04;95505.78;;;11.91;52.13
41078;BME280;26823;42.662;23.352;2022-12-29T13:42:35;95535.22;;;11.46;53.86
41078;BME280;26823;42.662;23.352;2022-12-29T13:45:10;95542.28;;;11.47;54.56
41078;BME280;26823;42.662;23.352;2022-12-29T13:47:43;95547.41;;;10.85;56.83
41078;BME280;26823;42.662;23.352;2022-12-29T13:50:19;95532.97;;;10.64;57.38
41078;BME280;26823;42.662;23.352;2022-12-29T13:55:51;95536.81;;;10.73;57.82
41078;BME280;26823;42.662;23.352;2022-12-29T13:58:31;95529.94;;;10.55;58.24
41078;BME280;26823;42.662;23.352;2022-12-29T14:03:49;95536.41;;;10.22;59.93
41078;BME280;26823;42.662;23.352;2022-12-29T14:09:01;95551.03;;;9.88;61.40
41078;BME280;26823;42.662;23.352;2022-12-29T14:11:32;95540.78;;;9.95;61.46
41078;BME280;26823;42.662;23.352;2022-12-29T14:13:59;95539.53;;;9.49;62.71
41078;BME280;26823;42.662;23.352;2022-12-29T14:16:36;95554.63;;;9.22;64.61
41078;BME280;26823;42.662;23.352;2022-12-29T14:19:11;95547.38;;;9.01;65.57
41078;BME280;26823;42.662;23.352;2022-12-29T14:21:38;95545.34;;;9.13;64.92
41078;BME280;26823;42.662;23.352;2022-12-29T14:26:52;95558.28;;;9.11;64.83
41078;BME280;26823;42.662;23.352;2022-12-29T14:31:50;95567.91;;;8.85;66.36
41078;BME280;26823;42.662;23.352;2022-12-29T14:37:02;95580.41;;;8.52;68.32
41078;BME280;26823;42.662;23.352;2022-12-29T14:42:06;95561.66;;;8.62;67.48
41078;BME280;26823;42.662;23.352;2022-12-29T14:44:58;95576.47;;;8.59;68.23
41078;BME280;26823;42.662;23.352;2022-12-29T14:47:32;95576.03;;;8.68;67.66
41078;BME280;26823;42.662;23.352;2022-12-29T14:57:45;95579.38;;;8.75;68.87
41078;BME280;26823;42.662;23.352;2022-12-29T15:00:24;95573.06;;;8.86;67.44
41078;BME280;26823;42.662;23.352;2022-12-29T15:05:37;95573.25;;;8.79;68.30
41078;BME280;26823;42.662;23.352;2022-12-29T15:08:06;95574.31;;;8.78;67.76
41078;BME280;26823;42.662;23.352;2022-12-29T15:10:41;95574.50;;;8.72;68.12
41078;BME280;26823;42.662;23.352;2022-12-29T15:13:15;95579.31;;;8.70;68.80
41078;BME280;26823;42.662;23.352;2022-12-29T15:15:41;95570.63;;;8.68;68.94
41078;BME280;26823;42.662;23.352;2022-12-29T15:21:03;95569.94;;;8.55;69.25
41078;BME280;26823;42.662;23.352;2022-12-29T15:23:30;95584.72;;;8.53;69.82
41078;BME280;26823;42.662;23.352;2022-12-29T15:26:02;95571.13;;;8.30;70.58
41078;BME280;26823;42.662;23.352;2022-12-29T15:28:39;95572.69;;;8.26;71.13
41078;BME280;26823;42.662;23.352;2022-12-29T15:33:39;95551.69;;;8.11;72.06
41078;BME280;26823;42.662;23.352;2022-12-29T15:36:11;95565.00;;;8.18;71.49
41078;BME280;26823;42.662;23.352;2022-12-29T15:38:37;95562.22;;;8.13;72.18
41078;BME280;26823;42.662;23.352;2022-12-29T15:46:22;95567.66;;;7.67;74.12
41078;BME280;26823;42.662;23.352;2022-12-29T15:48:48;95557.59;;;7.62;74.21
41078;BME280;26823;42.662;23.352;2022-12-29T15:51:20;95561.53;;;7.72;73.18
41078;BME280;26823;42.662;23.352;2022-12-29T15:53:50;95556.88;;;7.67;72.29